Time;durP1;ratioP1;P1;durP2;ratioP2;P2;SDS_P1;SDS_P2;PMS_P1;PMS_P2;Temp;Humidity;BMP_temperature;BMP_pressure;BME280_temperature;BME280_humidity;BME280_pressure;Samples;Min_cycle;Max_cycle;Signal;HPM_P1;HPM_P2
2022/04/19 00:01:53;;;;;;;48.25;19.65;;;;;;;11.68;48.46;101465.72;5068562;28;20044;-32
2022/04/19 00:04:19;;;;;;;44.40;19.63;;;;;;;11.71;48.16;101459.97;5052546;28;20112;-32
2022/04/19 00:06:44;;;;;;;45.10;19.27;;;;;;;11.67;48.53;101474.84;5059243;28;20099;-33
2022/04/19 00:09:10;;;;;;;45.85;18.70;;;;;;;11.61;48.28;101463.75;5063709;28;20051;-33
2022/04/19 00:11:36;;;;;;;44.38;19.48;;;;;;;11.59;48.51;101464.94;5063791;28;20028;-34
2022/04/19 00:14:01;;;;;;;45.47;19.05;;;;;;;11.53;48.84;101462.91;5061195;28;20407;-32
2022/04/19 00:16:27;;;;;;;46.72;19.63;;;;;;;11.47;49.69;101461.75;5067821;28;20111;-32
2022/04/19 00:18:52;;;;;;;53.17;19.83;;;;;;;11.44;49.37;101462.09;5064008;28;20128;-34
2022/04/19 00:21:19;;;;;;;49.15;19.50;;;;;;;11.45;50.27;101469.16;5058699;28;20025;-33
2022/04/19 00:23:46;;;;;;;49.50;19.40;;;;;;;11.38;49.85;101460.09;5053041;28;20651;-34
2022/04/19 00:26:11;;;;;;;51.47;19.27;;;;;;;11.33;50.98;101462.47;5070181;28;20021;-33
2022/04/19 00:28:37;;;;;;;53.72;20.48;;;;;;;11.33;50.55;101459.78;5055708;28;20486;-32
2022/04/19 00:31:03;;;;;;;49.78;19.67;;;;;;;11.29;50.67;101461.09;5069724;28;20037;-33
2022/04/19 00:33:29;;;;;;;52.95;20.45;;;;;;;11.26;50.69;101453.38;5059093;28;20028;-34
2022/04/19 00:35:54;;;;;;;50.45;20.00;;;;;;;11.26;50.53;101453.38;5058828;28;20040;-34
2022/04/19 00:38:20;;;;;;;52.05;20.45;;;;;;;11.21;51.12;101451.19;5057262;28;20487;-34
2022/04/19 00:40:45;;;;;;;50.13;20.45;;;;;;;11.21;51.38;101448.50;5053265;28;20029;-33
2022/04/19 00:43:11;;;;;;;52.65;18.92;;;;;;;11.18;51.12;101449.69;5054444;28;20522;-33
2022/04/19 00:45:36;;;;;;;48.58;20.05;;;;;;;11.23;50.62;101453.72;5049649;28;20037;-35
2022/04/19 00:48:02;;;;;;;50.42;20.55;;;;;;;11.10;51.79;101438.91;5059398;28;20021;-33
2022/04/19 00:50:28;;;;;;;55.97;20.95;;;;;;;11.03;52.54;101437.91;5067573;28;20446;-34
2022/04/19 00:52:53;;;;;;;50.17;21.00;;;;;;;11.02;52.90;101436.25;5068302;28;20033;-33
2022/04/19 00:55:19;;;;;;;49.60;19.30;;;;;;;10.99;52.83;101436.59;5068121;28;20020;-32
2022/04/19 00:57:46;;;;;;;52.92;20.00;;;;;;;10.93;53.37;101431.88;5063935;28;20036;-35
2022/04/19 01:00:12;;;;;;;48.40;20.67;;;;;;;10.90;53.93;101437.59;5068371;28;20514;-32
2022/04/19 01:02:38;;;;;;;53.58;18.75;;;;;;;10.86;53.73;101430.88;5063330;28;20021;-32
2022/04/19 01:05:05;;;;;;;52.35;20.77;;;;;;;10.83;53.83;101431.22;5066382;28;20070;-31
2022/04/19 01:07:30;;;;;;;56.67;21.35;;;;;;;10.83;55.02;101436.59;5056738;28;20433;-32
2022/04/19 01:09:56;;;;;;;51.35;20.83;;;;;;;10.84;54.64;101435.56;5060004;28;20036;-33
2022/04/19 01:15:08;;;;;;;52.35;21.25;;;;;;;10.84;54.47;101432.88;5059416;28;20035;-32
2022/04/19 01:17:34;;;;;;;51.42;20.38;;;;;;;10.83;54.80;101433.91;5061809;28;20051;-33
2022/04/19 01:20:01;;;;;;;64.50;22.65;;;;;;;10.81;54.76;101420.59;5058120;28;20044;-32
2022/04/19 01:22:26;;;;;;;57.97;20.33;;;;;;;10.80;55.09;101418.09;5069191;28;20429;-32
2022/04/19 01:24:52;;;;;;;52.42;20.88;;;;;;;10.77;55.02;101430.88;5064108;28;20275;-32
2022/04/19 01:27:18;;;;;;;47.65;20.17;;;;;;;10.75;55.58;101437.44;5063174;28;20383;-32
2022/04/19 01:29:44;;;;;;;52.47;21.67;;;;;;;10.74;56.35;101433.06;5064913;28;20025;-32
2022/04/19 01:32:11;;;;;;;53.25;21.40;;;;;;;10.73;55.87;101437.59;5067416;28;20033;-32
2022/04/19 01:34:36;;;;;;;60.30;22.83;;;;;;;10.69;55.95;101433.56;5067895;28;20483;-33
2022/04/19 01:37:01;;;;;;;56.55;22.33;;;;;;;10.70;56.43;101429.03;5053837;28;20079;-32
2022/04/19 01:42:11;;;;;;;49.83;21.27;;;;;;;10.67;56.27;101426.69;5064900;28;20040;-32
2022/04/19 01:44:38;;;;;;;52.65;21.73;;;;;;;10.66;56.53;101430.38;5050162;28;20037;-33
2022/04/19 01:47:07;;;;;;;57.15;22.67;;;;;;;10.60;56.59;101426.50;5051090;28;20105;-33
2022/04/19 01:49:35;;;;;;;54.92;22.45;;;;;;;10.53;56.94;101431.72;5052658;28;20488;-32
2022/04/19 01:52:03;;;;;;;55.92;22.55;;;;;;;10.50;57.61;101425.81;5055578;28;20021;-34
2022/04/19 01:54:29;;;;;;;59.08;21.25;;;;;;;10.45;57.76;101422.78;5067952;28;20067;-31
2022/04/19 01:56:55;;;;;;;52.65;21.77;;;;;;;10.40;57.78;101417.06;5059193;28;20060;-34
2022/04/19 01:59:20;;;;;;;55.92;21.40;;;;;;;10.35;58.51;101420.25;5055528;28;20151;-33
2022/04/19 02:01:47;;;;;;;51.88;22.63;;;;;;;10.30;58.80;101418.06;5056690;28;20029;-32
2022/04/19 02:04:14;;;;;;;63.30;23.05;;;;;;;10.23;58.65;101414.31;5056698;28;20062;-33
2022/04/19 02:06:40;;;;;;;68.28;23.38;;;;;;;10.20;59.13;101413.81;5059061;28;20045;-33
2022/04/19 02:09:05;;;;;;;60.20;23.63;;;;;;;10.17;59.45;101415.00;5054609;28;20368;-32
2022/04/19 02:11:31;;;;;;;58.28;23.45;;;;;;;10.08;59.54;101413.28;5061444;28;20116;-32
2022/04/19 02:13:56;;;;;;;61.50;23.17;;;;;;;10.01;59.60;101414.97;5055412;28;20028;-31
2022/04/19 02:16:21;;;;;;;60.65;23.25;;;;;;;9.95;60.41;101416.44;5059867;28;20166;-32
2022/04/19 02:18:48;;;;;;;59.28;24.05;;;;;;;9.94;60.73;101416.59;5053378;28;20040;-32
2022/04/19 02:21:13;;;;;;;62.13;24.50;;;;;;;9.91;59.99;101414.25;5062464;28;20032;-32
2022/04/19 02:23:39;;;;;;;59.95;24.60;;;;;;;9.90;60.66;101413.41;5061182;28;20458;-33
2022/04/19 02:26:04;;;;;;;66.53;24.42;;;;;;;9.92;60.89;101415.94;5063420;28;20420;-32
2022/04/19 02:28:31;;;;;;;57.50;24.02;;;;;;;9.92;61.13;101411.38;5066860;28;20629;-33
2022/04/19 02:30:57;;;;;;;59.90;24.10;;;;;;;9.92;60.94;101413.25;5068697;28;20021;-33
2022/04/19 02:33:23;;;;;;;57.55;22.63;;;;;;;9.91;60.85;101414.25;5093383;22;20052;-27
2022/04/19 02:35:48;;;;;;;64.03;25.55;;;;;;;9.91;60.80;101409.72;5064741;28;20029;-30
2022/04/19 02:38:14;;;;;;;72.57;25.60;;;;;;;9.89;61.89;101409.88;5072972;28;20045;-29
2022/04/19 02:40:39;;;;;;;59.13;24.10;;;;;;;9.84;61.48;101412.19;5071911;28;20032;-29
2022/04/19 02:43:05;;;;;;;63.13;25.13;;;;;;;9.76;62.32;101412.19;5064685;28;20098;-29
2022/04/19 02:45:30;;;;;;;67.40;25.10;;;;;;;9.72;62.71;101400.09;5048124;28;20044;-28
2022/04/19 02:48:06;;;;;;;69.07;26.90;;;;;;;9.71;62.43;101414.50;5071536;28;20012;-28
2022/04/19 02:50:43;;;;;;;59.58;26.27;;;;;;;9.70;62.19;101414.69;5071846;28;20144;-30
2022/04/19 02:53:08;;;;;;;59.65;26.27;;;;;;;9.55;63.11;101406.38;5064950;28;20025;-29
2022/04/19 02:55:34;;;;;;;63.70;26.05;;;;;;;9.53;64.06;101409.25;5073089;28;20453;-29
2022/04/19 02:57:59;;;;;;;69.65;27.35;;;;;;;9.53;63.52;101405.69;5070367;28;20107;-29
2022/04/19 03:00:24;;;;;;;64.25;26.38;;;;;;;9.55;63.37;101409.06;5072035;28;20078;-29
2022/04/19 03:02:51;;;;;;;70.07;28.10;;;;;;;9.50;63.88;101400.66;5071376;28;20020;-28
2022/04/19 03:05:18;;;;;;;66.68;25.30;;;;;;;9.54;64.28;101404.72;5071620;28;20032;-29
2022/04/19 03:07:43;;;;;;;66.72;27.15;;;;;;;9.56;64.18;101406.25;5067859;28;20024;-29
2022/04/19 03:10:09;;;;;;;66.60;26.02;;;;;;;9.53;64.39;101406.56;5070353;28;20457;-28
2022/04/19 03:12:34;;;;;;;67.88;26.90;;;;;;;9.48;64.89;101408.88;5069747;28;20483;-29
2022/04/19 03:15:00;;;;;;;77.68;28.67;;;;;;;9.43;64.83;101405.84;5070397;28;20331;-29
2022/04/19 03:17:26;;;;;;;70.90;28.77;;;;;;;9.37;65.64;101407.34;5071070;28;20032;-29
2022/04/19 03:19:52;;;;;;;61.60;27.40;;;;;;;9.37;65.12;101401.09;5071391;28;20467;-30
2022/04/19 03:22:17;;;;;;;65.88;27.60;;;;;;;9.29;66.20;101393.81;5069018;28;20036;-28
2022/04/19 03:27:42;;;;;;;65.53;27.23;;;;;;;9.19;66.53;101403.88;5069731;28;20067;-28
2022/04/19 03:30:09;;;;;;;69.43;27.58;;;;;;;9.20;66.27;101405.53;5070990;28;20032;-30
2022/04/19 03:32:35;;;;;;;64.93;28.20;;;;;;;9.11;66.61;101409.16;5070717;28;20103;-28
2022/04/19 03:35:00;;;;;;;64.88;27.10;;;;;;;9.03;67.07;101399.25;5055851;28;20495;-29
2022/04/19 03:37:25;;;;;;;64.05;25.83;;;;;;;9.02;67.25;101402.91;5049441;28;20111;-28
2022/04/19 03:39:51;;;;;;;67.88;27.08;;;;;;;8.98;67.38;101401.56;5049891;28;20411;-29
2022/04/19 03:42:16;;;;;;;70.88;28.83;;;;;;;8.97;68.21;101400.69;5050701;28;20102;-28
2022/04/19 03:44:41;;;;;;;62.08;27.33;;;;;;;8.98;68.35;101391.66;5050738;28;20484;-28
2022/04/19 03:47:07;;;;;;;71.18;30.00;;;;;;;9.00;68.89;101395.03;5050441;28;20051;-29
2022/04/19 03:49:34;;;;;;;72.57;29.15;;;;;;;9.00;68.76;101395.03;5050564;28;20044;-29
2022/04/19 03:51:59;;;;;;;72.35;29.02;;;;;;;9.01;69.05;101395.88;5050116;28;20064;-29
2022/04/19 03:54:25;;;;;;;67.15;28.52;;;;;;;9.01;69.26;101401.25;5050911;28;20495;-28
2022/04/19 03:56:51;;;;;;;70.45;28.67;;;;;;;9.02;69.58;101400.22;5050101;28;20040;-29
2022/04/19 03:59:16;;;;;;;71.80;29.58;;;;;;;9.04;69.83;101402.75;5050544;28;20060;-29
2022/04/19 04:01:42;;;;;;;74.93;30.42;;;;;;;9.11;70.06;101401.09;5050569;28;20060;-28
2022/04/19 04:04:08;;;;;;;66.70;28.70;;;;;;;9.12;69.98;101400.97;5050053;28;20119;-29
2022/04/19 04:06:36;;;;;;;73.88;30.45;;;;;;;9.14;70.40;101400.81;5040736;28;20076;-29
2022/04/19 04:09:02;;;;;;;62.05;28.50;;;;;;;9.12;69.80;101405.50;5044974;28;20040;-29
2022/04/19 04:11:27;;;;;;;73.72;30.70;;;;;;;9.12;70.22;101394.75;5032358;28;20261;-28
2022/04/19 04:13:53;;;;;;;69.47;30.20;;;;;;;9.11;70.51;101395.75;5048861;28;20075;-28
2022/04/19 04:16:18;;;;;;;62.92;28.40;;;;;;;9.07;70.49;101394.38;5050226;28;20059;-28
2022/04/19 04:18:43;;;;;;;68.10;28.90;;;;;;;9.07;70.92;101400.59;5049829;28;20360;-28
2022/04/19 04:21:08;;;;;;;64.05;28.05;;;;;;;9.05;70.83;101391.00;5050008;28;20029;-29
2022/04/19 04:23:34;;;;;;;64.10;29.33;;;;;;;9.06;70.81;101395.38;5049579;28;20033;-28
2022/04/19 04:25:59;;;;;;;58.13;27.90;;;;;;;9.02;71.28;101402.91;5050117;28;20123;-28
2022/04/19 04:28:25;;;;;;;61.70;27.77;;;;;;;9.04;71.47;101406.28;5048592;28;20472;-31
2022/04/19 04:30:51;;;;;;;61.78;28.65;;;;;;;9.00;71.09;101405.78;5048348;28;20024;-28
2022/04/19 04:33:16;;;;;;;63.03;27.50;;;;;;;9.00;71.78;101405.78;5048108;28;20091;-27
2022/04/19 04:35:41;;;;;;;61.33;26.90;;;;;;;9.01;71.61;101409.28;5048534;28;20037;-29
2022/04/19 04:38:06;;;;;;;56.08;26.20;;;;;;;8.98;71.76;101406.94;5048540;28;20033;-28
2022/04/19 04:40:32;;;;;;;57.83;26.58;;;;;;;8.97;71.88;101408.75;5045308;28;20029;-28
2022/04/19 04:42:57;;;;;;;60.35;27.00;;;;;;;8.97;72.09;101413.28;5038548;28;20051;-29
2022/04/19 04:45:22;;;;;;;62.72;26.92;;;;;;;8.98;72.41;101407.75;5047360;28;20017;-29
2022/04/19 04:50:32;;;;;;;55.90;25.88;;;;;;;9.00;72.29;101402.22;5047681;28;20043;-29
2022/04/19 04:52:57;;;;;;;60.95;27.00;;;;;;;9.01;72.13;101412.81;5047885;28;20108;-31
2022/04/19 04:55:24;;;;;;;49.65;25.00;;;;;;;9.05;72.20;101409.81;5045822;28;20471;-28
2022/04/19 04:57:49;;;;;;;50.92;24.77;;;;;;;9.11;72.66;101403.78;5047401;28;20082;-28
2022/04/19 05:00:15;;;;;;;57.17;26.33;;;;;;;9.17;72.61;101417.44;5047494;28;20037;-29
2022/04/19 05:02:40;;;;;;;56.90;25.70;;;;;;;9.24;72.86;101414.94;5047205;28;20117;-28
2022/04/19 05:05:06;;;;;;;53.10;26.38;;;;;;;9.30;72.56;101406.28;5046836;28;20060;-28
2022/04/19 05:07:31;;;;;;;56.15;25.98;;;;;;;9.33;71.91;101410.50;5047673;28;20476;-29
2022/04/19 05:09:58;;;;;;;52.30;25.65;;;;;;;9.37;71.78;101414.53;5046520;28;20074;-28
2022/04/19 05:12:24;;;;;;;50.97;25.97;;;;;;;9.39;71.88;101416.03;5047621;28;20082;-27
2022/04/19 05:14:49;;;;;;;53.28;25.63;;;;;;;9.44;72.06;101411.03;5047072;28;20041;-28
2022/04/19 05:17:14;;;;;;;54.58;26.15;;;;;;;9.56;71.99;101421.53;5042673;28;20384;-28
2022/04/19 05:19:39;;;;;;;46.88;23.73;;;;;;;9.66;71.80;101422.22;5047595;28;20515;-28
2022/04/19 05:22:05;;;;;;;53.70;25.75;;;;;;;9.70;71.37;101417.38;5047351;28;20025;-29
2022/04/19 05:24:30;;;;;;;57.45;25.27;;;;;;;9.74;71.74;101418.72;5032034;28;20114;-28
2022/04/19 05:26:56;;;;;;;50.75;25.25;;;;;;;9.82;71.54;101419.59;5048199;28;20029;-28
2022/04/19 05:29:21;;;;;;;45.25;24.58;;;;;;;9.91;71.27;101419.63;5047877;28;20044;-30
2022/04/19 05:31:47;;;;;;;45.58;24.52;;;;;;;9.99;71.30;101416.97;5047930;28;20052;-28
2022/04/19 05:34:12;;;;;;;42.83;23.80;;;;;;;10.15;71.51;101422.38;5033545;28;20056;-26
2022/04/19 05:36:37;;;;;;;42.78;24.88;;;;;;;10.36;70.67;101413.88;5031199;28;20052;-27
2022/04/19 05:39:03;;;;;;;46.28;23.17;;;;;;;10.74;70.30;101417.75;5050050;28;20025;-29
2022/04/19 05:41:29;;;;;;;42.95;23.92;;;;;;;11.13;68.66;101419.72;5049622;28;20021;-28
2022/04/19 05:43:54;;;;;;;43.53;23.10;;;;;;;11.60;68.01;101418.91;5049534;28;20036;-29
2022/04/19 05:46:20;;;;;;;40.25;22.60;;;;;;;12.08;65.85;101425.13;5053670;28;20033;-28
2022/04/19 05:48:46;;;;;;;46.70;22.25;;;;;;;12.58;62.53;101419.38;5054324;28;20116;-27
2022/04/19 05:51:12;;;;;;;42.55;21.65;;;;;;;13.09;61.63;101428.53;5053723;28;20418;-28
2022/04/19 05:53:38;;;;;;;42.22;21.67;;;;;;;13.68;60.24;101425.03;5052348;28;20053;-27
2022/04/19 05:56:04;;;;;;;36.95;21.60;;;;;;;14.43;57.46;101428.41;5038271;28;20033;-28
2022/04/19 05:58:29;;;;;;;36.65;20.63;;;;;;;15.15;54.98;101422.78;5033898;28;20088;-29
2022/04/19 06:00:54;;;;;;;34.75;20.35;;;;;;;15.66;52.83;101418.06;5051048;28;20029;-30
2022/04/19 06:06:05;;;;;;;28.05;19.45;;;;;;;16.84;49.38;101435.78;5052346;28;20518;-29
2022/04/19 06:08:31;;;;;;;33.73;19.40;;;;;;;17.73;46.68;101436.25;5053463;28;20116;-28
2022/04/19 06:10:56;;;;;;;31.48;20.15;;;;;;;18.04;46.18;101434.72;5053215;28;20606;-29
2022/04/19 06:13:21;;;;;;;29.80;19.25;;;;;;;18.35;44.33;101432.03;5052871;28;20052;-29
2022/04/19 06:15:47;;;;;;;31.20;20.95;;;;;;;18.01;45.18;101433.25;5050992;28;20040;-29
2022/04/19 06:18:12;;;;;;;32.42;21.80;;;;;;;17.88;45.20;101444.22;5052917;28;20086;-28
2022/04/19 06:20:38;;;;;;;35.65;20.25;;;;;;;18.21;44.70;101449.47;5052799;28;20156;-27
2022/04/19 06:23:04;;;;;;;32.17;20.08;;;;;;;18.51;44.03;101452.47;5051792;28;20020;-29
2022/04/19 06:25:29;;;;;;;33.92;20.80;;;;;;;18.54;43.50;101443.00;5051503;28;20073;-28
2022/04/19 06:27:57;;;;;;;44.30;22.10;;;;;;;18.72;42.60;101447.69;5051499;28;20040;-29
2022/04/19 06:30:24;;;;;;;;;;;;;;;18.66;41.82;101452.13;5047730;28;20083;-28
2022/04/19 06:32:50;;;;;;;29.55;19.67;;;;;;;18.89;41.46;101458.94;5052483;28;20364;-28
2022/04/19 06:35:15;;;;;;;34.00;21.10;;;;;;;19.19;40.88;101456.34;5052334;28;20073;-28
2022/04/19 06:37:41;;;;;;;35.13;21.15;;;;;;;18.99;41.76;101462.00;5052185;28;20064;-28
2022/04/19 06:40:06;;;;;;;33.08;21.77;;;;;;;19.00;41.94;101464.47;5052817;28;20040;-28
2022/04/19 06:42:32;;;;;;;37.60;20.60;;;;;;;19.63;40.22;101462.63;5052534;28;20021;-28
2022/04/19 06:44:58;;;;;;;34.55;20.15;;;;;;;19.69;39.90;101464.47;5050932;28;20170;-28
2022/04/19 06:47:25;;;;;;;39.97;21.25;;;;;;;19.61;40.09;101467.47;5052464;28;20130;-28
2022/04/19 06:49:52;;;;;;;39.83;22.15;;;;;;;20.03;38.95;101468.47;5051103;28;20031;-27
2022/04/19 06:52:17;;;;;;;38.20;22.60;;;;;;;19.70;38.97;101469.72;5052353;28;20055;-27
2022/04/19 06:54:42;;;;;;;41.83;22.83;;;;;;;19.92;39.52;101466.53;5050896;28;20025;-28
2022/04/19 06:57:08;;;;;;;40.55;22.48;;;;;;;20.62;37.94;101474.22;5051964;28;20025;-27
2022/04/19 06:59:33;;;;;;;33.60;21.50;;;;;;;20.31;37.43;101467.06;5052614;28;20063;-28
2022/04/19 07:01:59;;;;;;;44.10;21.08;;;;;;;20.75;37.48;101465.81;5052345;28;20070;-28
2022/04/19 07:04:24;;;;;;;32.65;20.67;;;;;;;21.65;35.28;101472.06;5052558;28;20032;-29
2022/04/19 07:06:50;;;;;;;36.38;21.52;;;;;;;21.33;34.23;101469.69;5052169;28;20056;-29
2022/04/19 07:09:15;;;;;;;37.25;22.30;;;;;;;21.16;35.91;101471.47;5053179;28;20097;-28
2022/04/19 07:11:41;;;;;;;39.58;21.30;;;;;;;21.80;33.44;101474.28;5052516;28;20104;-28
2022/04/19 07:14:06;;;;;;;43.38;21.67;;;;;;;22.08;33.86;101474.34;5052211;28;20021;-28
2022/04/19 07:16:32;;;;;;;34.20;20.20;;;;;;;23.45;30.66;101483.34;5052576;28;20483;-29
2022/04/19 07:18:58;;;;;;;32.72;20.52;;;;;;;23.29;30.79;101478.72;5052811;28;20079;-28
2022/04/19 07:26:52;;;;;;;37.50;18.50;;;;;;;22.55;30.90;101476.91;5053459;28;20044;-29
2022/04/19 07:29:18;;;;;;;37.08;19.98;;;;;;;21.57;32.22;101473.28;5052799;28;20028;-27
2022/04/19 07:31:45;;;;;;;38.17;20.63;;;;;;;21.29;32.46;101476.69;5052255;28;20029;-28
2022/04/19 07:34:11;;;;;;;38.30;21.42;;;;;;;20.69;33.71;101477.69;5051827;28;20045;-28
2022/04/19 07:36:40;;;;;;;36.20;18.00;;;;;;;20.62;32.71;101474.22;5052089;28;20139;-28
2022/04/19 07:39:09;;;;;;;34.35;18.20;;;;;;;20.13;33.77;101478.88;5051712;28;20047;-28
2022/04/19 07:41:35;;;;;;;34.53;17.92;;;;;;;19.47;33.94;101480.44;5051543;28;20029;-28
2022/04/19 07:44:01;;;;;;;32.60;17.35;;;;;;;19.55;32.77;101484.78;5050404;28;20025;-29
2022/04/19 07:46:27;;;;;;;29.73;17.15;;;;;;;19.26;33.48;101477.06;5050548;28;20043;-28
2022/04/19 07:48:53;;;;;;;40.10;18.30;;;;;;;19.50;32.39;101485.44;5051696;28;20025;-28
2022/04/19 07:51:18;;;;;;;33.80;18.67;;;;;;;19.51;33.08;101481.66;5051731;28;20033;-29
2022/04/19 07:53:44;;;;;;;38.38;17.58;;;;;;;19.80;32.65;101477.38;5049995;28;20017;-28
2022/04/19 07:56:09;;;;;;;32.65;18.20;;;;;;;20.09;32.43;101475.78;5051584;28;20116;-27
2022/04/19 07:58:35;;;;;;;37.35;18.23;;;;;;;19.90;31.14;101471.38;5042791;28;20499;-30
2022/04/19 08:01:00;;;;;;;35.30;17.50;;;;;;;19.96;31.69;101473.22;5028542;28;20526;-27
2022/04/19 08:03:26;;;;;;;34.85;17.27;;;;;;;20.27;31.09;101474.06;5031022;28;20061;-29
2022/04/19 08:05:52;;;;;;;40.17;18.52;;;;;;;20.29;30.67;101478.22;5029241;28;20443;-28
2022/04/19 08:08:18;;;;;;;38.00;19.30;;;;;;;20.15;31.20;101477.56;5030712;28;20029;-28
2022/04/19 08:10:44;;;;;;;36.60;17.58;;;;;;;20.02;31.60;101472.28;5029093;28;20121;-28
2022/04/19 08:13:10;;;;;;;42.75;16.90;;;;;;;19.68;32.33;101479.19;5029909;28;20531;-30
2022/04/19 08:15:35;;;;;;;36.95;17.63;;;;;;;19.94;30.96;101489.00;5031036;28;20090;-29
2022/04/19 08:18:00;;;;;;;34.97;17.08;;;;;;;20.33;30.35;101495.84;5031066;28;20343;-29
2022/04/19 08:20:25;;;;;;;35.08;17.95;;;;;;;20.65;29.88;101483.88;5031320;28;20527;-30
2022/04/19 08:22:51;;;;;;;40.53;17.10;;;;;;;22.17;29.55;101482.19;5030945;28;20036;-29
2022/04/19 08:25:16;;;;;;;33.55;16.63;;;;;;;23.30;27.17;101488.66;5030830;28;20076;-29
2022/04/19 08:27:45;;;;;;;36.50;17.77;;;;;;;23.45;26.04;101490.78;5031087;28;20045;-29
2022/04/19 08:30:15;;;;;;;35.50;16.63;;;;;;;24.29;25.79;101476.75;5029681;28;20033;-29
2022/04/19 08:32:42;;;;;;;32.13;16.85;;;;;;;23.76;24.78;101492.06;5029364;28;20443;-30
2022/04/19 08:35:09;;;;;;;31.25;16.65;;;;;;;23.58;26.16;101492.34;5029116;28;20124;-28
2022/04/19 08:37:34;;;;;;;29.80;16.33;;;;;;;23.92;26.28;101498.59;5030689;28;20033;-28
2022/04/19 08:40:01;;;;;;;31.95;17.23;;;;;;;24.06;25.11;101493.53;5030739;28;20556;-29
2022/04/19 08:42:29;;;;;;;36.67;16.67;;;;;;;25.17;25.00;101482.06;5030741;28;20697;-29
2022/04/19 08:44:56;;;;;;;33.63;15.90;;;;;;;26.46;23.67;101492.63;5030794;28;20029;-29
2022/04/19 08:47:23;;;;;;;31.55;15.15;;;;;;;27.63;22.79;101490.13;5029558;28;20512;-30
2022/04/19 08:49:48;;;;;;;29.92;15.68;;;;;;;27.91;21.82;101500.59;5030793;28;20417;-29
2022/04/19 08:52:14;;;;;;;26.63;15.13;;;;;;;27.67;21.99;101483.75;5030541;28;20108;-29
2022/04/19 08:57:29;;;;;;;17.75;9.48;;;;;;;25.17;22.25;101487.56;5029281;28;20467;-28
2022/04/19 08:59:55;;;;;;;20.05;9.65;;;;;;;25.19;22.91;101479.84;5030418;28;20045;-29
2022/04/19 09:02:22;;;;;;;19.75;9.73;;;;;;;24.29;23.55;101475.94;5030360;28;20022;-31
2022/04/19 09:04:48;;;;;;;;;;;;;;;24.01;24.69;101479.72;5031409;28;20045;-30
2022/04/19 09:07:13;;;;;;;15.43;8.60;;;;;;;24.95;23.56;101470.25;5030628;28;19948;-30
2022/04/19 09:09:39;;;;;;;19.27;8.40;;;;;;;25.86;22.72;101484.94;5028921;28;20026;-28
2022/04/19 09:12:10;;;;;;;16.80;8.07;;;;;;;26.10;22.50;101482.56;5012503;28;20124;-28
2022/04/19 09:14:36;;;;;;;21.75;8.38;;;;;;;25.97;22.15;101484.72;5030436;28;20032;-29
2022/04/19 09:17:08;;;;;;;16.33;7.93;;;;;;;26.39;21.16;101481.00;5029023;28;20037;-29
2022/04/19 09:19:33;;;;;;;15.73;7.35;;;;;;;26.77;21.87;101465.06;5030018;28;20033;-28
2022/04/19 09:21:59;;;;;;;18.42;7.80;;;;;;;26.09;22.08;101483.66;5029051;28;20021;-29
2022/04/19 09:24:25;;;;;;;18.88;7.88;;;;;;;26.23;21.18;101474.59;5030419;28;20021;-29
2022/04/19 09:26:51;;;;;;;17.38;8.32;;;;;;;25.70;21.75;101484.00;5030336;28;20381;-28
2022/04/19 09:29:27;;;;;;;24.55;8.68;;;;;;;25.69;22.11;101480.41;5028903;28;20029;-29
2022/04/19 09:32:01;;;;;;;21.15;8.40;;;;;;;25.52;22.29;101479.78;5030565;28;20298;-29
2022/04/19 09:34:29;;;;;;;24.58;10.20;;;;;;;25.82;21.71;101476.34;5028670;28;20445;-30
2022/04/19 09:37:06;;;;;;;;;;;;;;;25.91;22.11;101472.03;5029652;28;20025;-30
2022/04/19 09:39:34;;;;;;;22.38;8.80;;;;;;;26.06;21.99;101461.03;5030173;28;19909;-29
2022/04/19 09:42:01;;;;;;;23.42;9.90;;;;;;;26.74;20.93;101467.53;5030210;28;20018;-28
2022/04/19 09:44:27;;;;;;;29.30;9.88;;;;;;;26.87;20.22;101461.47;5012308;28;20108;-30
2022/04/19 09:47:07;;;;;;;23.77;10.35;;;;;;;26.36;21.49;101458.66;5030152;28;20568;-29
2022/04/19 09:50:03;;;;;;;20.70;9.60;;;;;;;24.97;21.99;101459.81;5030187;28;20025;-29
2022/04/19 09:52:28;;;;;;;22.65;10.63;;;;;;;25.11;22.65;101455.50;5028416;28;20046;-29
2022/04/19 09:55:00;;;;;;;21.80;9.90;;;;;;;25.32;22.28;101462.03;5030017;28;20124;-31
2022/04/19 09:57:26;;;;;;;23.23;10.48;;;;;;;24.83;23.12;101458.59;5028739;28;20041;-29
2022/04/19 09:59:52;;;;;;;23.50;10.98;;;;;;;24.34;23.98;101456.75;5029775;28;20427;-29
2022/04/19 10:10:31;;;;;;;20.08;9.35;;;;;;;25.13;22.29;101463.53;5027400;28;20056;-30
2022/04/19 10:12:57;;;;;;;23.08;9.60;;;;;;;24.85;21.89;101456.41;5027526;28;20026;-29
2022/04/19 10:15:23;;;;;;;24.88;9.55;;;;;;;23.51;22.54;101462.28;5026277;28;20392;-30
2022/04/19 10:17:48;;;;;;;21.23;9.48;;;;;;;22.69;23.57;101455.47;5027421;28;20041;-31
2022/04/19 10:20:15;;;;;;;19.95;9.38;;;;;;;22.58;24.18;101456.41;5027320;28;20025;-31
2022/04/19 10:22:47;;;;;;;32.75;9.77;;;;;;;22.43;23.16;101458.84;5026560;28;20061;-29
2022/04/19 10:25:13;;;;;;;23.30;9.95;;;;;;;22.13;24.98;101455.25;5026464;28;20053;-30
2022/04/19 10:27:38;;;;;;;21.88;9.18;;;;;;;21.96;24.10;101462.59;5026596;28;20029;-29
2022/04/19 10:30:06;;;;;;;23.45;9.07;;;;;;;21.62;25.37;101459.69;5027878;28;20156;-30
2022/04/19 10:32:33;;;;;;;22.02;9.50;;;;;;;21.53;25.93;101461.13;5013451;28;20041;-29
2022/04/19 10:35:03;;;;;;;27.75;9.55;;;;;;;21.21;26.47;101453.25;5029506;28;20049;-30
2022/04/19 10:37:29;;;;;;;27.60;11.10;;;;;;;21.52;25.83;101447.69;5031209;28;20041;-30
2022/04/19 10:39:57;;;;;;;22.95;9.98;;;;;;;21.43;25.39;101456.25;5030191;28;20035;-28
2022/04/19 10:42:26;;;;;;;27.38;10.73;;;;;;;21.66;26.38;101455.38;5030712;28;20245;-29
2022/04/19 10:44:52;;;;;;;28.23;10.57;;;;;;;21.48;26.64;101458.25;5031071;28;20052;-29
2022/04/19 10:47:20;;;;;;;29.55;9.93;;;;;;;21.81;25.43;101449.41;5030771;28;20629;-29
2022/04/19 10:50:05;;;;;;;30.70;9.95;;;;;;;21.61;24.41;101448.97;5029479;28;20039;-29
2022/04/19 10:52:36;;;;;;;18.42;8.40;;;;;;;21.70;24.47;101453.84;5032512;28;20412;-29
2022/04/19 10:55:08;;;;;;;19.77;8.73;;;;;;;21.84;24.81;101443.44;5033181;28;20026;-30
2022/04/19 11:00:29;;;;;;;27.63;11.98;;;;;;;22.29;25.94;101450.94;5031992;28;20053;-30
2022/04/19 11:03:00;;;;;;;28.55;11.82;;;;;;;22.42;26.48;101447.06;5031520;28;20650;-29
2022/04/19 11:05:48;;;;;;;32.13;12.00;;;;;;;22.37;26.42;101444.22;5015109;28;20105;-28
2022/04/19 11:08:25;;;;;;;30.73;12.57;;;;;;;22.44;26.33;101447.66;5032868;28;20408;-29
2022/04/19 11:11:23;;;;;;;32.85;13.13;;;;;;;22.22;26.56;101446.66;5033012;28;20025;-28
2022/04/19 11:14:18;;;;;;;25.95;10.88;;;;;;;22.44;26.45;101442.16;5032975;28;20049;-31
2022/04/19 11:16:44;;;;;;;32.22;11.85;;;;;;;22.77;25.72;101440.53;5030950;28;20156;-30
2022/04/19 11:19:15;;;;;;;25.80;11.77;;;;;;;22.95;25.78;101455.91;5014990;28;20479;-28
2022/04/19 11:21:50;;;;;;;24.38;10.52;;;;;;;23.30;25.35;101446.59;5031282;28;20025;-29
2022/04/19 11:25:01;;;;;;;30.88;12.18;;;;;;;24.00;24.94;101440.41;5031157;28;20077;-29
2022/04/19 11:27:54;;;;;;;31.25;11.05;;;;;;;24.30;23.50;101441.81;5021857;28;20187;-29
2022/04/19 11:30:20;;;;;;;27.98;11.45;;;;;;;24.24;22.75;101440.13;5032366;28;20025;-29
2022/04/19 11:32:55;;;;;;;33.33;11.85;;;;;;;24.53;22.71;101441.53;5032328;28;20206;-29
2022/04/19 11:35:21;;;;;;;24.70;11.35;;;;;;;24.37;22.01;101444.38;5030645;28;20057;-30
2022/04/19 11:37:46;;;;;;;27.55;11.80;;;;;;;24.50;22.99;101436.56;5030948;28;20029;-30
2022/04/19 11:48:38;;;;;;;27.60;11.60;;;;;;;25.50;21.95;101432.38;5030786;28;19915;-29
2022/04/19 11:51:08;;;;;;;27.25;11.88;;;;;;;25.63;21.18;101435.47;5032169;28;20025;-30
2022/04/19 11:53:33;;;;;;;27.75;12.05;;;;;;;25.26;21.56;101435.53;5031755;28;20029;-29
2022/04/19 11:55:59;;;;;;;28.15;11.38;;;;;;;25.17;22.49;101421.44;5030503;28;20064;-29